createdAt,value
2018-11-28T00:00:32.204Z,6.80
2018-11-28T00:03:02.174Z,7.67
2018-11-28T00:05:29.959Z,7.30
2018-11-28T00:07:57.873Z,7.40
2018-11-28T00:10:25.677Z,8.03
2018-11-28T00:12:53.559Z,8.40
2018-11-28T00:15:21.380Z,7.70
2018-11-28T00:17:49.350Z,7.80
2018-11-28T00:20:21.243Z,7.30
2018-11-28T00:22:49.069Z,6.40
2018-11-28T00:25:17.418Z,7.90
2018-11-28T00:27:45.216Z,7.53
2018-11-28T00:30:15.255Z,7.70
2018-11-28T00:32:43.108Z,7.60
2018-11-28T00:35:14.598Z,9.57
2018-11-28T00:37:42.683Z,7.20
2018-11-28T00:40:11.242Z,8.30
2018-11-28T00:42:39.526Z,8.10
2018-11-28T00:45:11.946Z,8.90
2018-11-28T00:47:39.828Z,9.20
2018-11-28T00:50:08.681Z,7.37
2018-11-28T00:52:36.545Z,8.97
2018-11-28T00:55:04.751Z,8.17
2018-11-28T00:57:32.828Z,8.37
2018-11-28T01:00:00.623Z,8.57
2018-11-28T01:02:28.553Z,8.73
2018-11-28T01:04:56.515Z,8.60
2018-11-28T01:07:24.282Z,8.63
2018-11-28T01:09:59.220Z,7.93
2018-11-28T01:12:27.035Z,8.83
2018-11-28T01:14:54.982Z,10.30
2018-11-28T01:17:23.060Z,9.27
2018-11-28T01:19:50.915Z,9.10
2018-11-28T01:22:18.708Z,9.50
2018-11-28T01:24:46.656Z,8.73
2018-11-28T01:27:14.656Z,8.80
2018-11-28T01:29:42.462Z,9.23
2018-11-28T01:32:10.248Z,9.57
2018-11-28T01:34:38.085Z,8.67
2018-11-28T01:37:05.841Z,9.13
2018-11-28T01:39:34.006Z,9.80
2018-11-28T01:42:01.912Z,9.27
2018-11-28T01:44:29.963Z,9.07
2018-11-28T01:46:58.113Z,8.57
2018-11-28T01:49:26.107Z,9.93
2018-11-28T01:51:54.064Z,9.83
2018-11-28T01:54:22.098Z,9.40
2018-11-28T01:56:50.059Z,10.37
2018-11-28T01:59:18.002Z,9.87
2018-11-28T02:01:45.902Z,9.97
2018-11-28T02:04:13.698Z,9.65
2018-11-28T02:06:41.643Z,9.23
2018-11-28T02:09:09.488Z,8.85
2018-11-28T02:11:37.400Z,9.00
2018-11-28T02:14:05.310Z,9.25
2018-11-28T02:16:33.352Z,9.17
2018-11-28T02:19:01.455Z,8.90
2018-11-28T02:21:29.440Z,9.80
2018-11-28T02:23:57.308Z,9.43
2018-11-28T02:26:25.333Z,10.05
2018-11-28T02:28:53.323Z,10.40
2018-11-28T02:31:21.472Z,9.70
2018-11-28T02:33:49.481Z,9.40
2018-11-28T02:36:17.553Z,10.00
2018-11-28T02:38:45.519Z,9.60
2018-11-28T02:41:13.841Z,10.40
2018-11-28T02:43:48.703Z,10.33
2018-11-28T02:46:29.225Z,9.30
2018-11-28T02:48:57.210Z,10.17
2018-11-28T02:51:25.449Z,10.70
2018-11-28T02:53:53.404Z,10.50
2018-11-28T02:56:21.396Z,9.83
2018-11-28T02:58:49.207Z,9.73
2018-11-28T03:01:17.058Z,9.03
2018-11-28T03:03:45.145Z,9.57
2018-11-28T03:06:13.167Z,10.00
2018-11-28T03:08:41.198Z,8.17
2018-11-28T03:11:09.305Z,10.17
2018-11-28T03:13:37.172Z,8.70
2018-11-28T03:16:14.345Z,8.60
2018-11-28T03:18:42.498Z,9.50
2018-11-28T03:21:10.240Z,9.00
2018-11-28T03:23:38.397Z,9.63
2018-11-28T03:26:06.573Z,9.77
2018-11-28T03:28:34.480Z,9.30
2018-11-28T03:31:02.282Z,10.20
2018-11-28T03:33:30.443Z,9.80
2018-11-28T03:35:58.403Z,9.53
2018-11-28T03:38:26.221Z,9.80
2018-11-28T03:40:54.064Z,9.15
2018-11-28T03:43:21.869Z,9.10
2018-11-28T03:45:49.844Z,9.70
2018-11-28T03:48:20.597Z,9.90
2018-11-28T03:50:48.574Z,9.00
2018-11-28T03:53:16.440Z,9.50
2018-11-28T03:55:44.396Z,9.30
2018-11-28T03:58:12.480Z,9.63
2018-11-28T04:00:42.237Z,10.03
2018-11-28T04:03:10.040Z,9.20
2018-11-28T04:05:37.968Z,9.03
2018-11-28T04:08:20.541Z,9.33
2018-11-28T04:10:48.374Z,7.90
2018-11-28T04:13:16.119Z,9.63
2018-11-28T04:15:44.152Z,10.17
2018-11-28T04:18:11.918Z,8.70
2018-11-28T04:20:39.669Z,10.50
2018-11-28T04:23:07.462Z,9.57
2018-11-28T04:25:35.236Z,10.23
2018-11-28T04:28:03.166Z,9.13
2018-11-28T04:33:05.472Z,10.20
2018-11-28T04:35:33.291Z,10.47
2018-11-28T04:38:01.043Z,10.70
2018-11-28T04:40:28.668Z,10.07
2018-11-28T04:42:56.479Z,10.60
2018-11-28T04:45:24.714Z,10.10
2018-11-28T04:47:53.012Z,9.17
2018-11-28T04:50:21.095Z,9.90
2018-11-28T04:52:48.905Z,9.67
2018-11-28T04:55:18.409Z,9.33
2018-11-28T04:57:46.420Z,8.90
2018-11-28T05:00:22.474Z,8.13
2018-11-28T05:02:53.994Z,9.63
2018-11-28T05:05:21.630Z,9.93
2018-11-28T05:07:50.269Z,9.25
2018-11-28T05:10:22.111Z,8.97
2018-11-28T05:12:50.694Z,9.53
2018-11-28T05:15:18.853Z,10.17
2018-11-28T05:17:47.207Z,9.05
2018-11-28T05:20:18.017Z,9.80
2018-11-28T05:22:45.883Z,9.83
2018-11-28T05:25:15.181Z,9.50
2018-11-28T05:27:43.212Z,9.97
2018-11-28T05:30:11.774Z,9.50
2018-11-28T05:32:39.924Z,10.20
2018-11-28T05:35:09.246Z,9.50
2018-11-28T05:37:36.822Z,10.57
2018-11-28T05:40:06.470Z,10.35
2018-11-28T05:42:34.396Z,9.40
2018-11-28T05:45:02.317Z,9.20
2018-11-28T05:47:30.120Z,10.00
2018-11-28T05:49:57.962Z,9.65
2018-11-28T05:52:25.886Z,10.15
2018-11-28T05:54:53.721Z,10.50
2018-11-28T05:57:21.445Z,10.20
2018-11-28T05:59:49.633Z,10.65
2018-11-28T06:02:17.927Z,10.35
2018-11-28T06:04:45.806Z,9.00
2018-11-28T06:07:13.757Z,10.50
2018-11-28T06:09:41.418Z,11.10
2018-11-28T06:12:09.347Z,9.80
2018-11-28T06:14:37.117Z,10.45
2018-11-28T06:17:05.685Z,10.60
2018-11-28T06:19:34.352Z,10.80
2018-11-28T06:22:02.008Z,10.13
2018-11-28T06:24:29.663Z,10.03
2018-11-28T06:26:57.330Z,11.77
2018-11-28T06:29:25.362Z,10.50
2018-11-28T06:31:53.110Z,10.80
2018-11-28T06:34:22.075Z,10.97
2018-11-28T06:36:49.783Z,12.10
2018-11-28T06:39:17.506Z,11.73
2018-11-28T06:41:45.194Z,12.30
2018-11-28T06:44:12.867Z,11.23
2018-11-28T06:46:41.390Z,11.30
2018-11-28T06:49:14.955Z,14.00
2018-11-28T06:51:43.516Z,9.80
2018-11-28T06:54:11.451Z,10.93
2018-11-28T06:56:39.335Z,10.43
2018-11-28T06:59:07.362Z,11.00
2018-11-28T07:01:35.448Z,11.03
2018-11-28T07:04:03.188Z,8.25
2018-11-28T07:06:30.866Z,10.20
2018-11-28T07:08:58.682Z,10.63
2018-11-28T07:11:26.694Z,11.20
2018-11-28T07:13:54.450Z,9.77
2018-11-28T07:16:22.214Z,11.85
2018-11-28T07:18:55.335Z,10.87
2018-11-28T07:21:23.279Z,11.53
2018-11-28T07:23:51.138Z,11.23
2018-11-28T07:26:19.098Z,9.75
2018-11-28T07:28:46.947Z,8.95
2018-11-28T07:31:14.597Z,7.65
2018-11-28T07:33:42.629Z,8.30
2018-11-28T07:36:10.582Z,7.70
2018-11-28T07:38:38.762Z,9.20
2018-11-28T07:41:07.136Z,8.43
2018-11-28T07:43:43.309Z,9.40
2018-11-28T07:46:10.992Z,9.17
2018-11-28T07:48:38.900Z,9.47
2018-11-28T07:51:07.192Z,9.80
2018-11-28T07:53:35.062Z,8.63
2018-11-28T07:56:04.811Z,8.97
2018-11-28T07:58:32.598Z,8.70
2018-11-28T08:01:00.911Z,7.93
2018-11-28T08:03:28.552Z,8.90
2018-11-28T08:05:56.249Z,8.80
2018-11-28T08:08:25.333Z,7.50
2018-11-28T08:10:52.983Z,8.00
2018-11-28T08:13:24.731Z,6.90
2018-11-28T08:15:53.510Z,8.53
2018-11-28T08:18:23.298Z,9.30
2018-11-28T08:20:52.440Z,10.90
2018-11-28T08:23:22.596Z,17.90
2018-11-28T08:25:51.325Z,19.60
2018-11-28T08:28:19.115Z,12.90
2018-11-28T08:30:46.915Z,33.77
2018-11-28T08:33:14.693Z,13.45
2018-11-28T08:35:46.160Z,34.27
2018-11-28T08:38:14.550Z,15.30
2018-11-28T08:40:42.378Z,11.27
2018-11-28T08:43:10.587Z,8.90
2018-11-28T08:45:38.699Z,10.00
2018-11-28T08:48:06.634Z,9.20
2018-11-28T08:50:35.418Z,10.30
2018-11-28T08:53:04.097Z,9.37
2018-11-28T08:55:31.986Z,9.30
2018-11-28T08:57:59.722Z,8.07
2018-11-28T09:00:28.100Z,7.65
2018-11-28T09:03:05.026Z,8.67
2018-11-28T09:05:33.128Z,6.80
2018-11-28T09:08:05.901Z,7.20
2018-11-28T09:10:36.020Z,7.00
2018-11-28T09:13:05.476Z,8.10
2018-11-28T09:15:33.226Z,5.93
2018-11-28T09:18:01.045Z,7.93
2018-11-28T09:20:28.986Z,8.67
2018-11-28T09:22:58.102Z,8.80
2018-11-28T09:25:28.611Z,8.17
2018-11-28T09:27:56.867Z,8.60
2018-11-28T09:30:24.695Z,10.30
2018-11-28T09:32:52.747Z,8.73
2018-11-28T09:35:21.641Z,10.67
2018-11-28T09:37:49.511Z,9.83
2018-11-28T09:40:28.580Z,10.83
2018-11-28T09:42:58.940Z,10.10
2018-11-28T09:45:30.264Z,9.93
2018-11-28T09:47:58.874Z,10.57
2018-11-28T09:50:27.184Z,8.73
2018-11-28T09:52:58.748Z,9.17
2018-11-28T09:55:28.575Z,9.10
2018-11-28T09:57:58.473Z,8.40
2018-11-28T10:00:27.605Z,7.00
2018-11-28T10:02:56.412Z,9.13
2018-11-28T10:05:25.282Z,7.00
2018-11-28T10:07:53.024Z,9.87
2018-11-28T10:10:32.693Z,7.93
2018-11-28T10:13:01.555Z,7.50
2018-11-28T10:15:35.337Z,6.70
2018-11-28T10:17:57.634Z,7.05
2018-11-28T10:20:25.462Z,8.13
2018-11-28T10:22:53.419Z,7.80
2018-11-28T10:25:21.480Z,9.63
2018-11-28T10:27:53.622Z,7.93
2018-11-28T10:30:37.803Z,7.53
2018-11-28T10:33:06.476Z,7.03
2018-11-28T10:35:34.945Z,7.20
2018-11-28T10:38:02.638Z,6.90
2018-11-28T10:40:30.440Z,8.30
2018-11-28T10:42:58.817Z,7.70
2018-11-28T10:45:26.976Z,8.33
2018-11-28T10:47:55.226Z,8.40
2018-11-28T10:50:23.134Z,8.77
2018-11-28T10:52:51.035Z,8.17
2018-11-28T10:55:19.376Z,7.43
2018-11-28T10:57:47.740Z,7.30
2018-11-28T11:00:21.798Z,7.17
2018-11-28T11:02:55.135Z,8.30
2018-11-28T11:05:28.426Z,4.90
2018-11-28T11:08:01.770Z,7.30
2018-11-28T11:10:34.955Z,6.30
2018-11-28T11:13:08.079Z,6.73
2018-11-28T11:15:36.035Z,6.00
2018-11-28T11:18:10.254Z,6.15
2018-11-28T11:20:31.923Z,6.60
2018-11-28T11:22:59.779Z,7.17
2018-11-28T11:25:27.612Z,5.93
2018-11-28T11:27:55.210Z,5.80
2018-11-28T11:30:22.887Z,6.47
2018-11-28T11:32:50.718Z,5.20
2018-11-28T11:35:18.690Z,7.23
2018-11-28T11:37:48.134Z,5.25
2018-11-28T11:40:15.950Z,5.70
2018-11-28T11:42:43.742Z,6.30
2018-11-28T11:45:12.238Z,6.20
2018-11-28T11:47:40.008Z,4.87
2018-11-28T11:50:11.910Z,6.10
2018-11-28T11:52:39.722Z,6.20
2018-11-28T11:55:10.653Z,5.90
2018-11-28T11:57:38.225Z,4.30
2018-11-28T12:00:11.112Z,5.75
2018-11-28T12:02:39.288Z,5.20
2018-11-28T12:05:08.754Z,4.90
2018-11-28T12:07:36.785Z,4.80
2018-11-28T12:10:09.055Z,4.35
2018-11-28T12:17:29.654Z,5.83
2018-11-28T12:19:57.450Z,5.70
2018-11-28T12:22:25.342Z,6.60
2018-11-28T12:24:53.152Z,6.23
2018-11-28T12:27:20.944Z,5.53
2018-11-28T12:29:48.884Z,4.93
2018-11-28T12:32:17.266Z,5.90
2018-11-28T12:34:50.322Z,4.60
2018-11-28T12:37:12.861Z,5.07
2018-11-28T12:39:40.708Z,4.30
2018-11-28T12:42:08.515Z,4.15
2018-11-28T12:44:36.282Z,4.60
2018-11-28T12:47:03.956Z,4.20
2018-11-28T12:49:34.747Z,4.80
2018-11-28T12:52:04.472Z,4.15
2018-11-28T12:54:32.252Z,4.40
2018-11-28T12:57:02.336Z,4.87
2018-11-28T12:59:30.489Z,4.73
2018-11-28T13:09:19.804Z,4.00
2018-11-28T13:11:47.441Z,3.30
2018-11-28T13:14:15.120Z,3.50
2018-11-28T13:16:42.742Z,3.57
2018-11-28T13:19:10.334Z,4.13
2018-11-28T13:21:38.083Z,3.90
2018-11-28T13:24:05.998Z,4.07
2018-11-28T13:26:33.811Z,3.13
2018-11-28T13:29:02.135Z,3.97
2018-11-28T13:31:29.871Z,3.70
2018-11-28T13:33:57.513Z,2.73
2018-11-28T13:36:25.240Z,4.40
2018-11-28T13:38:53.000Z,3.90
2018-11-28T13:41:20.880Z,3.03
2018-11-28T13:43:48.572Z,3.53
2018-11-28T13:46:18.019Z,3.67
2018-11-28T13:48:45.638Z,3.77
2018-11-28T13:51:13.368Z,3.83
2018-11-28T13:53:41.126Z,4.00
2018-11-28T13:58:36.934Z,3.47
2018-11-28T14:01:05.131Z,12.73
2018-11-28T14:03:32.767Z,4.77
2018-11-28T14:06:00.491Z,4.60
2018-11-28T14:08:34.731Z,4.20
2018-11-28T14:11:02.529Z,5.20
2018-11-28T14:13:30.319Z,3.90
2018-11-28T14:15:58.429Z,4.10
2018-11-28T14:18:26.402Z,3.90
2018-11-28T14:20:54.028Z,3.20
2018-11-28T14:23:21.691Z,4.80
2018-11-28T14:25:49.616Z,4.40
2018-11-28T14:28:17.494Z,4.25
2018-11-28T14:30:46.111Z,3.70
2018-11-28T14:33:13.959Z,4.23
2018-11-28T14:35:41.802Z,4.60
2018-11-28T14:38:09.708Z,4.60
2018-11-28T14:40:37.528Z,3.90
2018-11-28T14:43:11.464Z,4.90
2018-11-28T14:45:39.598Z,4.80
2018-11-28T14:48:07.482Z,5.10
2018-11-28T14:50:35.689Z,4.70
2018-11-28T14:53:03.456Z,4.03
2018-11-28T14:55:39.138Z,5.00
2018-11-28T14:58:07.764Z,6.47
2018-11-28T15:00:35.478Z,5.43
2018-11-28T15:03:15.557Z,5.90
2018-11-28T15:05:59.601Z,4.95
2018-11-28T15:08:27.684Z,5.57
2018-11-28T15:10:58.724Z,4.90
2018-11-28T15:13:26.378Z,5.67
2018-11-28T15:15:55.900Z,6.70
2018-11-28T15:18:25.113Z,6.45
2018-11-28T15:20:52.550Z,6.60
2018-11-28T15:23:20.210Z,6.93
2018-11-28T15:25:47.978Z,5.60
2018-11-28T15:28:15.666Z,7.50
2018-11-28T15:30:43.402Z,5.27
2018-11-28T15:33:12.152Z,5.67
2018-11-28T15:35:40.185Z,5.47
2018-11-28T15:38:08.434Z,6.55
2018-11-28T15:40:36.508Z,7.13
2018-11-28T15:43:04.338Z,7.70
2018-11-28T15:45:34.058Z,7.73
2018-11-28T15:48:01.884Z,6.30
2018-11-28T15:50:29.672Z,7.70
2018-11-28T15:52:57.371Z,6.73
2018-11-28T15:55:25.203Z,7.95
2018-11-28T15:57:52.930Z,7.10
2018-11-28T16:00:25.246Z,6.55
2018-11-28T16:02:53.261Z,6.67
2018-11-28T16:05:20.971Z,6.80
2018-11-28T16:07:48.696Z,6.73
2018-11-28T16:10:22.011Z,9.25
2018-11-28T16:12:50.410Z,8.50
2018-11-28T16:15:21.752Z,8.60
2018-11-28T16:17:49.379Z,6.33
2018-11-28T16:20:17.205Z,7.33
2018-11-28T16:22:44.858Z,6.60
2018-11-28T16:25:12.679Z,8.50
2018-11-28T16:27:41.664Z,7.20
2018-11-28T16:30:12.677Z,6.47
2018-11-28T16:32:40.735Z,5.05
2018-11-28T16:35:09.903Z,5.95
2018-11-28T16:37:37.515Z,6.23
2018-11-28T16:40:06.461Z,8.00
2018-11-28T16:42:34.164Z,7.85
2018-11-28T16:45:01.780Z,6.45
2018-11-28T16:47:29.509Z,8.80
2018-11-28T16:49:57.709Z,6.65
2018-11-28T16:52:25.661Z,9.87
2018-11-28T16:54:53.807Z,7.40
2018-11-28T16:57:21.554Z,7.75
2018-11-28T16:59:49.376Z,9.75
2018-11-28T17:02:17.238Z,9.35
2018-11-28T17:04:44.893Z,8.70
2018-11-28T17:07:12.583Z,7.00
2018-11-28T17:09:40.289Z,7.93
2018-11-28T17:12:07.936Z,6.50
2018-11-28T17:14:36.488Z,5.70
2018-11-28T17:17:04.444Z,8.10
2018-11-28T17:21:59.415Z,7.50
2018-11-28T17:24:27.110Z,6.73
2018-11-28T17:26:54.887Z,7.60
2018-11-28T17:31:52.032Z,6.95
2018-11-28T17:34:20.019Z,7.90
2018-11-28T17:36:48.113Z,7.70
2018-11-28T17:39:15.958Z,8.27
2018-11-28T17:41:43.762Z,8.35
2018-11-28T17:44:11.442Z,7.70
2018-11-28T17:46:39.248Z,7.30
2018-11-28T17:49:07.033Z,7.40
2018-11-28T17:51:34.877Z,6.50
2018-11-28T17:54:02.985Z,6.90
2018-11-28T17:56:31.057Z,6.57
2018-11-28T17:58:58.742Z,6.10
2018-11-28T18:01:26.585Z,6.20
2018-11-28T18:03:54.336Z,7.95
2018-11-28T18:06:22.065Z,7.83
2018-11-28T18:08:49.735Z,6.90
2018-11-28T18:11:17.381Z,8.07
2018-11-28T18:13:45.161Z,8.30
2018-11-28T18:16:13.069Z,7.65
2018-11-28T18:18:40.945Z,7.45
2018-11-28T18:21:08.838Z,7.10
2018-11-28T18:23:36.596Z,8.43
2018-11-28T18:26:07.308Z,6.50
2018-11-28T18:28:35.215Z,6.35
2018-11-28T18:31:03.074Z,6.80
2018-11-28T18:33:30.912Z,9.70
2018-11-28T18:35:58.765Z,8.37
2018-11-28T18:38:26.455Z,8.00
2018-11-28T18:40:54.365Z,8.60
2018-11-28T18:43:22.089Z,9.05
2018-11-28T18:45:51.592Z,8.40
2018-11-28T18:48:19.384Z,6.70
2018-11-28T18:50:47.214Z,7.15
2018-11-28T18:53:14.830Z,8.40
2018-11-28T18:55:42.562Z,10.00
2018-11-28T18:58:11.591Z,9.50
2018-11-28T19:00:39.935Z,8.35
2018-11-28T19:10:30.036Z,8.70
2018-11-28T19:12:58.068Z,8.70
2018-11-28T19:15:26.741Z,8.00
2018-11-28T19:17:55.113Z,9.90
2018-11-28T19:20:22.942Z,9.07
2018-11-28T19:22:51.685Z,8.60
2018-11-28T19:25:20.674Z,7.10
2018-11-28T19:30:18.282Z,9.60
2018-11-28T19:32:45.995Z,8.70
2018-11-28T19:40:11.684Z,10.40
2018-11-28T19:42:39.505Z,7.90
2018-11-28T19:52:36.107Z,9.10
2018-11-28T19:55:03.838Z,8.60
2018-11-28T19:59:58.642Z,8.50
2018-11-28T20:12:19.436Z,8.50
2018-11-28T20:17:14.201Z,9.10
2018-11-28T20:36:52.517Z,7.70
